sensor_id;sensor_type;location;lat;lon;timestamp;P1;durP1;ratioP1;P2;durP2;ratioP2
4971;SDS011;2501;51.214;6.768;2024-03-08T00:00:52;26.30;;;18.70;;
4971;SDS011;2501;51.214;6.768;2024-03-08T00:03:21;33.10;;;19.02;;
4971;SDS011;2501;51.214;6.768;2024-03-08T00:05:49;39.55;;;20.00;;
4971;SDS011;2501;51.214;6.768;2024-03-08T00:08:18;27.42;;;18.27;;
4971;SDS011;2501;51.214;6.768;2024-03-08T00:10:46;31.55;;;20.25;;
4971;SDS011;2501;51.214;6.768;2024-03-08T00:13:15;28.17;;;18.77;;
4971;SDS011;2501;51.214;6.768;2024-03-08T00:15:43;31.42;;;20.00;;
4971;SDS011;2501;51.214;6.768;2024-03-08T00:18:14;28.95;;;19.38;;
4971;SDS011;2501;51.214;6.768;2024-03-08T00:20:43;35.63;;;20.40;;
4971;SDS011;2501;51.214;6.768;2024-03-08T00:23:11;33.78;;;19.67;;
4971;SDS011;2501;51.214;6.768;2024-03-08T00:25:40;36.55;;;20.88;;
4971;SDS011;2501;51.214;6.768;2024-03-08T00:28:09;27.98;;;18.40;;
4971;SDS011;2501;51.214;6.768;2024-03-08T00:30:40;32.88;;;19.42;;
4971;SDS011;2501;51.214;6.768;2024-03-08T00:33:06;30.60;;;19.80;;
4971;SDS011;2501;51.214;6.768;2024-03-08T00:35:37;30.50;;;19.45;;
4971;SDS011;2501;51.214;6.768;2024-03-08T00:38:05;35.08;;;20.25;;
4971;SDS011;2501;51.214;6.768;2024-03-08T00:40:33;29.13;;;19.50;;
4971;SDS011;2501;51.214;6.768;2024-03-08T00:43:02;34.53;;;18.45;;
4971;SDS011;2501;51.214;6.768;2024-03-08T00:45:31;29.77;;;18.30;;
4971;SDS011;2501;51.214;6.768;2024-03-08T00:47:59;31.02;;;19.13;;
4971;SDS011;2501;51.214;6.768;2024-03-08T00:50:28;31.93;;;18.27;;
4971;SDS011;2501;51.214;6.768;2024-03-08T00:52:59;28.83;;;19.15;;
4971;SDS011;2501;51.214;6.768;2024-03-08T00:55:27;32.10;;;19.83;;
4971;SDS011;2501;51.214;6.768;2024-03-08T00:57:57;26.52;;;19.90;;
4971;SDS011;2501;51.214;6.768;2024-03-08T01:00:25;33.72;;;20.20;;
4971;SDS011;2501;51.214;6.768;2024-03-08T01:02:54;38.97;;;19.90;;
4971;SDS011;2501;51.214;6.768;2024-03-08T01:05:22;33.88;;;19.33;;
4971;SDS011;2501;51.214;6.768;2024-03-08T01:07:52;30.05;;;18.55;;
4971;SDS011;2501;51.214;6.768;2024-03-08T01:10:23;32.03;;;19.00;;
4971;SDS011;2501;51.214;6.768;2024-03-08T01:12:52;32.90;;;19.05;;
4971;SDS011;2501;51.214;6.768;2024-03-08T01:15:22;31.33;;;18.38;;
4971;SDS011;2501;51.214;6.768;2024-03-08T01:17:50;32.67;;;18.45;;
4971;SDS011;2501;51.214;6.768;2024-03-08T01:20:19;32.60;;;18.92;;
4971;SDS011;2501;51.214;6.768;2024-03-08T01:22:47;30.77;;;19.05;;
4971;SDS011;2501;51.214;6.768;2024-03-08T01:25:16;34.03;;;19.85;;
4971;SDS011;2501;51.214;6.768;2024-03-08T01:27:47;29.90;;;19.20;;
4971;SDS011;2501;51.214;6.768;2024-03-08T01:30:16;33.33;;;19.98;;
4971;SDS011;2501;51.214;6.768;2024-03-08T01:32:44;33.00;;;22.00;;
4971;SDS011;2501;51.214;6.768;2024-03-08T01:35:13;35.27;;;19.83;;
4971;SDS011;2501;51.214;6.768;2024-03-08T01:37:43;37.00;;;20.17;;
4971;SDS011;2501;51.214;6.768;2024-03-08T01:40:11;35.25;;;20.50;;
4971;SDS011;2501;51.214;6.768;2024-03-08T01:42:40;36.63;;;19.52;;
4971;SDS011;2501;51.214;6.768;2024-03-08T01:45:12;33.72;;;19.55;;
4971;SDS011;2501;51.214;6.768;2024-03-08T01:47:41;30.97;;;19.50;;
4971;SDS011;2501;51.214;6.768;2024-03-08T01:50:10;31.40;;;20.50;;
4971;SDS011;2501;51.214;6.768;2024-03-08T01:52:38;33.75;;;22.02;;
4971;SDS011;2501;51.214;6.768;2024-03-08T01:55:07;44.77;;;25.13;;
4971;SDS011;2501;51.214;6.768;2024-03-08T01:57:36;37.20;;;22.30;;
4971;SDS011;2501;51.214;6.768;2024-03-08T02:00:05;32.65;;;20.08;;
4971;SDS011;2501;51.214;6.768;2024-03-08T02:02:38;32.50;;;19.90;;
4971;SDS011;2501;51.214;6.768;2024-03-08T02:05:10;31.13;;;19.95;;
4971;SDS011;2501;51.214;6.768;2024-03-08T02:07:40;32.67;;;20.13;;
4971;SDS011;2501;51.214;6.768;2024-03-08T02:10:09;32.40;;;19.55;;
4971;SDS011;2501;51.214;6.768;2024-03-08T02:12:38;30.75;;;19.80;;
4971;SDS011;2501;51.214;6.768;2024-03-08T02:15:07;35.28;;;20.17;;
4971;SDS011;2501;51.214;6.768;2024-03-08T02:17:38;34.75;;;20.35;;
4971;SDS011;2501;51.214;6.768;2024-03-08T02:20:07;31.77;;;19.50;;
4971;SDS011;2501;51.214;6.768;2024-03-08T02:22:41;34.97;;;19.13;;
4971;SDS011;2501;51.214;6.768;2024-03-08T02:25:09;37.97;;;20.17;;
4971;SDS011;2501;51.214;6.768;2024-03-08T02:27:39;34.65;;;20.38;;
4971;SDS011;2501;51.214;6.768;2024-03-08T02:30:08;33.20;;;20.23;;
4971;SDS011;2501;51.214;6.768;2024-03-08T02:32:37;39.55;;;20.48;;
4971;SDS011;2501;51.214;6.768;2024-03-08T02:35:06;31.83;;;20.33;;
4971;SDS011;2501;51.214;6.768;2024-03-08T02:37:35;33.60;;;20.05;;
4971;SDS011;2501;51.214;6.768;2024-03-08T02:40:06;33.53;;;20.50;;
4971;SDS011;2501;51.214;6.768;2024-03-08T02:42:37;32.67;;;20.00;;
4971;SDS011;2501;51.214;6.768;2024-03-08T02:45:06;35.50;;;21.57;;
4971;SDS011;2501;51.214;6.768;2024-03-08T02:47:35;33.13;;;21.20;;
4971;SDS011;2501;51.214;6.768;2024-03-08T02:50:04;37.70;;;19.92;;
4971;SDS011;2501;51.214;6.768;2024-03-08T02:52:33;31.65;;;20.48;;
4971;SDS011;2501;51.214;6.768;2024-03-08T02:55:02;33.25;;;21.48;;
4971;SDS011;2501;51.214;6.768;2024-03-08T02:57:34;35.42;;;20.52;;
4971;SDS011;2501;51.214;6.768;2024-03-08T03:00:02;33.13;;;20.80;;
4971;SDS011;2501;51.214;6.768;2024-03-08T03:02:34;35.47;;;20.80;;
4971;SDS011;2501;51.214;6.768;2024-03-08T03:05:03;34.97;;;20.83;;
4971;SDS011;2501;51.214;6.768;2024-03-08T03:07:32;32.80;;;19.50;;
4971;SDS011;2501;51.214;6.768;2024-03-08T03:10:01;36.08;;;21.33;;
4971;SDS011;2501;51.214;6.768;2024-03-08T03:12:30;37.17;;;21.35;;
4971;SDS011;2501;51.214;6.768;2024-03-08T03:15:03;37.38;;;21.10;;
4971;SDS011;2501;51.214;6.768;2024-03-08T03:17:32;32.55;;;20.65;;
4971;SDS011;2501;51.214;6.768;2024-03-08T03:20:00;33.88;;;21.45;;
4971;SDS011;2501;51.214;6.768;2024-03-08T03:22:34;30.52;;;20.23;;
4971;SDS011;2501;51.214;6.768;2024-03-08T03:25:03;31.58;;;19.80;;
4971;SDS011;2501;51.214;6.768;2024-03-08T03:27:35;38.13;;;21.25;;
4971;SDS011;2501;51.214;6.768;2024-03-08T03:30:06;33.65;;;19.58;;
4971;SDS011;2501;51.214;6.768;2024-03-08T03:32:47;36.70;;;21.23;;
4971;SDS011;2501;51.214;6.768;2024-03-08T03:35:16;33.50;;;20.98;;
4971;SDS011;2501;51.214;6.768;2024-03-08T03:37:45;33.88;;;20.67;;
4971;SDS011;2501;51.214;6.768;2024-03-08T03:40:26;33.78;;;19.58;;
4971;SDS011;2501;51.214;6.768;2024-03-08T03:42:57;35.53;;;20.83;;
4971;SDS011;2501;51.214;6.768;2024-03-08T03:45:26;32.70;;;20.43;;
4971;SDS011;2501;51.214;6.768;2024-03-08T03:47:54;33.90;;;21.80;;
4971;SDS011;2501;51.214;6.768;2024-03-08T03:50:25;37.40;;;21.47;;
4971;SDS011;2501;51.214;6.768;2024-03-08T03:52:54;36.47;;;20.67;;
4971;SDS011;2501;51.214;6.768;2024-03-08T03:55:22;37.38;;;21.40;;
4971;SDS011;2501;51.214;6.768;2024-03-08T03:57:50;36.15;;;21.85;;
4971;SDS011;2501;51.214;6.768;2024-03-08T04:00:22;40.00;;;21.42;;
4971;SDS011;2501;51.214;6.768;2024-03-08T04:02:52;35.00;;;21.08;;
4971;SDS011;2501;51.214;6.768;2024-03-08T04:05:24;34.80;;;21.25;;
4971;SDS011;2501;51.214;6.768;2024-03-08T04:07:53;38.80;;;21.52;;
4971;SDS011;2501;51.214;6.768;2024-03-08T04:10:22;35.05;;;21.88;;
4971;SDS011;2501;51.214;6.768;2024-03-08T04:12:50;31.90;;;19.90;;
4971;SDS011;2501;51.214;6.768;2024-03-08T04:15:18;32.70;;;20.10;;
4971;SDS011;2501;51.214;6.768;2024-03-08T04:17:50;35.40;;;20.97;;
4971;SDS011;2501;51.214;6.768;2024-03-08T04:20:19;34.90;;;20.85;;
4971;SDS011;2501;51.214;6.768;2024-03-08T04:22:47;38.08;;;21.05;;
4971;SDS011;2501;51.214;6.768;2024-03-08T04:25:15;42.40;;;20.30;;
4971;SDS011;2501;51.214;6.768;2024-03-08T04:27:45;35.88;;;21.08;;
4971;SDS011;2501;51.214;6.768;2024-03-08T04:30:14;35.17;;;20.70;;
4971;SDS011;2501;51.214;6.768;2024-03-08T04:32:45;35.05;;;21.35;;
4971;SDS011;2501;51.214;6.768;2024-03-08T04:35:14;37.17;;;21.35;;
4971;SDS011;2501;51.214;6.768;2024-03-08T04:37:42;36.97;;;21.88;;
4971;SDS011;2501;51.214;6.768;2024-03-08T04:40:11;38.50;;;21.73;;
4971;SDS011;2501;51.214;6.768;2024-03-08T04:42:39;32.20;;;21.00;;
4971;SDS011;2501;51.214;6.768;2024-03-08T04:45:10;40.03;;;21.67;;
4971;SDS011;2501;51.214;6.768;2024-03-08T04:47:39;35.27;;;20.93;;
4971;SDS011;2501;51.214;6.768;2024-03-08T04:50:10;39.83;;;20.83;;
4971;SDS011;2501;51.214;6.768;2024-03-08T04:52:39;32.75;;;20.80;;
4971;SDS011;2501;51.214;6.768;2024-03-08T04:55:07;35.60;;;22.33;;
4971;SDS011;2501;51.214;6.768;2024-03-08T04:57:36;35.63;;;21.35;;
4971;SDS011;2501;51.214;6.768;2024-03-08T05:00:05;39.28;;;21.45;;
4971;SDS011;2501;51.214;6.768;2024-03-08T05:02:36;36.40;;;20.65;;
4971;SDS011;2501;51.214;6.768;2024-03-08T05:05:05;37.47;;;21.97;;
4971;SDS011;2501;51.214;6.768;2024-03-08T05:07:37;37.00;;;21.05;;
4971;SDS011;2501;51.214;6.768;2024-03-08T05:10:05;32.63;;;21.02;;
4971;SDS011;2501;51.214;6.768;2024-03-08T05:12:35;39.25;;;22.25;;
4971;SDS011;2501;51.214;6.768;2024-03-08T05:15:04;34.72;;;21.88;;
4971;SDS011;2501;51.214;6.768;2024-03-08T05:17:33;36.10;;;21.97;;
4971;SDS011;2501;51.214;6.768;2024-03-08T05:20:02;32.30;;;20.73;;
4971;SDS011;2501;51.214;6.768;2024-03-08T05:22:33;33.17;;;20.25;;
4971;SDS011;2501;51.214;6.768;2024-03-08T05:25:04;35.53;;;19.60;;
4971;SDS011;2501;51.214;6.768;2024-03-08T05:27:33;38.40;;;21.67;;
4971;SDS011;2501;51.214;6.768;2024-03-08T05:30:08;38.72;;;21.83;;
4971;SDS011;2501;51.214;6.768;2024-03-08T05:32:51;37.70;;;21.45;;
4971;SDS011;2501;51.214;6.768;2024-03-08T05:35:27;39.80;;;21.52;;
4971;SDS011;2501;51.214;6.768;2024-03-08T05:37:57;34.22;;;20.58;;
4971;SDS011;2501;51.214;6.768;2024-03-08T05:40:29;36.47;;;21.50;;
4971;SDS011;2501;51.214;6.768;2024-03-08T05:42:58;36.67;;;21.75;;
4971;SDS011;2501;51.214;6.768;2024-03-08T05:45:26;35.33;;;21.90;;
4971;SDS011;2501;51.214;6.768;2024-03-08T05:47:55;35.88;;;19.88;;
4971;SDS011;2501;51.214;6.768;2024-03-08T05:50:24;40.63;;;21.58;;
4971;SDS011;2501;51.214;6.768;2024-03-08T05:52:52;37.70;;;21.00;;
4971;SDS011;2501;51.214;6.768;2024-03-08T05:55:21;36.45;;;19.88;;
4971;SDS011;2501;51.214;6.768;2024-03-08T05:57:52;36.72;;;19.88;;
4971;SDS011;2501;51.214;6.768;2024-03-08T06:00:21;38.65;;;20.27;;
4971;SDS011;2501;51.214;6.768;2024-03-08T06:02:51;38.22;;;20.67;;
4971;SDS011;2501;51.214;6.768;2024-03-08T06:05:20;38.05;;;20.75;;
4971;SDS011;2501;51.214;6.768;2024-03-08T06:07:49;35.25;;;20.30;;
4971;SDS011;2501;51.214;6.768;2024-03-08T06:10:18;37.50;;;20.10;;
4971;SDS011;2501;51.214;6.768;2024-03-08T06:12:47;38.28;;;21.30;;
4971;SDS011;2501;51.214;6.768;2024-03-08T06:15:19;40.00;;;21.17;;
4971;SDS011;2501;51.214;6.768;2024-03-08T06:17:47;39.78;;;20.73;;
4971;SDS011;2501;51.214;6.768;2024-03-08T06:20:17;33.55;;;20.15;;
4971;SDS011;2501;51.214;6.768;2024-03-08T06:22:51;43.13;;;22.50;;
4971;SDS011;2501;51.214;6.768;2024-03-08T06:25:19;40.57;;;23.30;;
4971;SDS011;2501;51.214;6.768;2024-03-08T06:27:48;33.75;;;20.65;;
4971;SDS011;2501;51.214;6.768;2024-03-08T06:30:20;37.95;;;22.05;;
4971;SDS011;2501;51.214;6.768;2024-03-08T06:32:49;41.80;;;23.05;;
4971;SDS011;2501;51.214;6.768;2024-03-08T06:35:17;37.30;;;20.55;;
4971;SDS011;2501;51.214;6.768;2024-03-08T06:37:46;38.60;;;21.52;;
4971;SDS011;2501;51.214;6.768;2024-03-08T06:40:14;41.60;;;22.33;;
4971;SDS011;2501;51.214;6.768;2024-03-08T06:42:43;37.85;;;21.70;;
4971;SDS011;2501;51.214;6.768;2024-03-08T06:45:12;38.07;;;21.77;;
4971;SDS011;2501;51.214;6.768;2024-03-08T06:47:47;39.55;;;21.58;;
4971;SDS011;2501;51.214;6.768;2024-03-08T06:50:16;39.95;;;22.27;;
4971;SDS011;2501;51.214;6.768;2024-03-08T06:52:44;61.47;;;33.83;;
4971;SDS011;2501;51.214;6.768;2024-03-08T06:55:18;40.17;;;23.35;;
4971;SDS011;2501;51.214;6.768;2024-03-08T06:57:47;36.10;;;21.55;;
4971;SDS011;2501;51.214;6.768;2024-03-08T07:00:15;39.10;;;22.65;;
4971;SDS011;2501;51.214;6.768;2024-03-08T07:02:48;37.38;;;22.13;;
4971;SDS011;2501;51.214;6.768;2024-03-08T07:05:18;38.35;;;21.63;;
4971;SDS011;2501;51.214;6.768;2024-03-08T07:07:48;37.50;;;22.80;;
4971;SDS011;2501;51.214;6.768;2024-03-08T07:10:17;38.20;;;22.00;;
4971;SDS011;2501;51.214;6.768;2024-03-08T07:12:45;42.05;;;22.92;;
4971;SDS011;2501;51.214;6.768;2024-03-08T07:15:13;37.73;;;21.80;;
4971;SDS011;2501;51.214;6.768;2024-03-08T07:17:44;41.03;;;22.48;;
4971;SDS011;2501;51.214;6.768;2024-03-08T07:20:15;37.10;;;22.10;;
4971;SDS011;2501;51.214;6.768;2024-03-08T07:22:44;41.22;;;23.42;;
4971;SDS011;2501;51.214;6.768;2024-03-08T07:25:13;39.38;;;21.90;;
4971;SDS011;2501;51.214;6.768;2024-03-08T07:27:48;39.53;;;23.17;;
4971;SDS011;2501;51.214;6.768;2024-03-08T07:30:17;35.83;;;22.40;;
4971;SDS011;2501;51.214;6.768;2024-03-08T07:32:58;36.65;;;21.73;;
4971;SDS011;2501;51.214;6.768;2024-03-08T07:35:30;36.70;;;21.77;;
4971;SDS011;2501;51.214;6.768;2024-03-08T07:37:58;36.22;;;21.90;;
4971;SDS011;2501;51.214;6.768;2024-03-08T07:40:27;36.22;;;21.33;;
4971;SDS011;2501;51.214;6.768;2024-03-08T07:42:56;38.75;;;22.52;;
4971;SDS011;2501;51.214;6.768;2024-03-08T07:45:25;38.15;;;21.33;;
4971;SDS011;2501;51.214;6.768;2024-03-08T07:47:53;37.67;;;22.23;;
4971;SDS011;2501;51.214;6.768;2024-03-08T07:50:22;39.63;;;22.90;;
4971;SDS011;2501;51.214;6.768;2024-03-08T07:52:53;36.45;;;20.70;;
4971;SDS011;2501;51.214;6.768;2024-03-08T07:55:21;37.08;;;21.85;;
4971;SDS011;2501;51.214;6.768;2024-03-08T07:57:51;40.40;;;23.00;;
4971;SDS011;2501;51.214;6.768;2024-03-08T08:00:20;36.05;;;22.23;;
4971;SDS011;2501;51.214;6.768;2024-03-08T08:02:49;38.67;;;22.88;;
4971;SDS011;2501;51.214;6.768;2024-03-08T08:05:18;37.78;;;21.38;;
4971;SDS011;2501;51.214;6.768;2024-03-08T08:07:46;39.35;;;22.75;;
4971;SDS011;2501;51.214;6.768;2024-03-08T08:10:17;33.78;;;21.88;;
4971;SDS011;2501;51.214;6.768;2024-03-08T08:12:46;36.30;;;21.63;;
4971;SDS011;2501;51.214;6.768;2024-03-08T08:15:15;33.65;;;21.27;;
4971;SDS011;2501;51.214;6.768;2024-03-08T08:17:43;36.17;;;20.23;;
4971;SDS011;2501;51.214;6.768;2024-03-08T08:20:12;36.88;;;21.30;;
4971;SDS011;2501;51.214;6.768;2024-03-08T08:22:43;36.45;;;21.45;;
4971;SDS011;2501;51.214;6.768;2024-03-08T08:25:13;33.37;;;20.47;;
4971;SDS011;2501;51.214;6.768;2024-03-08T08:27:48;34.75;;;21.35;;
4971;SDS011;2501;51.214;6.768;2024-03-08T08:30:16;34.58;;;21.30;;
4971;SDS011;2501;51.214;6.768;2024-03-08T08:32:45;34.25;;;20.55;;
4971;SDS011;2501;51.214;6.768;2024-03-08T08:35:14;34.47;;;19.40;;
4971;SDS011;2501;51.214;6.768;2024-03-08T08:37:44;31.83;;;19.38;;
4971;SDS011;2501;51.214;6.768;2024-03-08T08:40:13;35.63;;;20.45;;
4971;SDS011;2501;51.214;6.768;2024-03-08T08:42:42;31.90;;;19.60;;
4971;SDS011;2501;51.214;6.768;2024-03-08T08:45:13;29.73;;;18.45;;
4971;SDS011;2501;51.214;6.768;2024-03-08T08:47:42;29.88;;;18.70;;
4971;SDS011;2501;51.214;6.768;2024-03-08T08:50:12;29.42;;;17.45;;
4971;SDS011;2501;51.214;6.768;2024-03-08T08:52:41;32.80;;;17.55;;
4971;SDS011;2501;51.214;6.768;2024-03-08T08:55:11;27.58;;;16.25;;
4971;SDS011;2501;51.214;6.768;2024-03-08T08:57:40;27.38;;;16.13;;
4971;SDS011;2501;51.214;6.768;2024-03-08T09:00:09;25.60;;;16.48;;
4971;SDS011;2501;51.214;6.768;2024-03-08T09:02:42;26.52;;;15.43;;
4971;SDS011;2501;51.214;6.768;2024-03-08T09:05:11;28.63;;;16.00;;
4971;SDS011;2501;51.214;6.768;2024-03-08T09:07:41;25.77;;;16.90;;
4971;SDS011;2501;51.214;6.768;2024-03-08T09:10:11;26.67;;;16.48;;
4971;SDS011;2501;51.214;6.768;2024-03-08T09:12:40;26.83;;;17.30;;
4971;SDS011;2501;51.214;6.768;2024-03-08T09:15:08;26.02;;;16.25;;
4971;SDS011;2501;51.214;6.768;2024-03-08T09:17:37;27.15;;;16.48;;
4971;SDS011;2501;51.214;6.768;2024-03-08T09:20:11;31.63;;;16.58;;
4971;SDS011;2501;51.214;6.768;2024-03-08T09:22:40;27.30;;;15.85;;
4971;SDS011;2501;51.214;6.768;2024-03-08T09:25:09;24.42;;;15.63;;
4971;SDS011;2501;51.214;6.768;2024-03-08T09:27:37;25.50;;;14.93;;
4971;SDS011;2501;51.214;6.768;2024-03-08T09:30:06;28.40;;;15.48;;
4971;SDS011;2501;51.214;6.768;2024-03-08T09:32:38;29.50;;;15.23;;
4971;SDS011;2501;51.214;6.768;2024-03-08T09:35:11;31.90;;;17.65;;
4971;SDS011;2501;51.214;6.768;2024-03-08T09:37:40;24.58;;;15.77;;
4971;SDS011;2501;51.214;6.768;2024-03-08T09:40:09;26.43;;;14.83;;
4971;SDS011;2501;51.214;6.768;2024-03-08T09:42:40;26.02;;;15.68;;
4971;SDS011;2501;51.214;6.768;2024-03-08T09:45:10;23.97;;;14.80;;
4971;SDS011;2501;51.214;6.768;2024-03-08T09:47:40;23.87;;;14.63;;
4971;SDS011;2501;51.214;6.768;2024-03-08T09:50:12;29.40;;;16.30;;
4971;SDS011;2501;51.214;6.768;2024-03-08T09:52:43;24.90;;;14.70;;
4971;SDS011;2501;51.214;6.768;2024-03-08T09:55:14;27.80;;;15.47;;
4971;SDS011;2501;51.214;6.768;2024-03-08T09:57:47;23.52;;;14.40;;
4971;SDS011;2501;51.214;6.768;2024-03-08T10:00:28;27.60;;;14.97;;
4971;SDS011;2501;51.214;6.768;2024-03-08T10:03:00;24.35;;;14.73;;
4971;SDS011;2501;51.214;6.768;2024-03-08T10:05:33;21.60;;;14.35;;
4971;SDS011;2501;51.214;6.768;2024-03-08T10:08:01;24.67;;;15.20;;
4971;SDS011;2501;51.214;6.768;2024-03-08T10:10:33;24.65;;;15.27;;
4971;SDS011;2501;51.214;6.768;2024-03-08T10:13:02;26.15;;;15.10;;
4971;SDS011;2501;51.214;6.768;2024-03-08T10:15:34;27.90;;;14.80;;
4971;SDS011;2501;51.214;6.768;2024-03-08T10:18:04;24.33;;;14.45;;
4971;SDS011;2501;51.214;6.768;2024-03-08T10:20:35;24.52;;;15.07;;
4971;SDS011;2501;51.214;6.768;2024-03-08T10:23:04;21.48;;;13.95;;
4971;SDS011;2501;51.214;6.768;2024-03-08T10:25:35;22.85;;;14.85;;
4971;SDS011;2501;51.214;6.768;2024-03-08T10:28:04;25.13;;;16.02;;
4971;SDS011;2501;51.214;6.768;2024-03-08T10:30:33;25.90;;;15.45;;
4971;SDS011;2501;51.214;6.768;2024-03-08T10:33:03;25.25;;;14.63;;
4971;SDS011;2501;51.214;6.768;2024-03-08T10:35:31;22.05;;;15.13;;
4971;SDS011;2501;51.214;6.768;2024-03-08T10:38:03;22.35;;;15.20;;
4971;SDS011;2501;51.214;6.768;2024-03-08T10:40:35;23.75;;;14.15;;
4971;SDS011;2501;51.214;6.768;2024-03-08T10:43:06;20.98;;;13.02;;
4971;SDS011;2501;51.214;6.768;2024-03-08T10:45:49;20.02;;;13.40;;
4971;SDS011;2501;51.214;6.768;2024-03-08T10:48:26;19.55;;;11.80;;
4971;SDS011;2501;51.214;6.768;2024-03-08T10:50:57;18.45;;;12.50;;
4971;SDS011;2501;51.214;6.768;2024-03-08T10:53:30;20.85;;;12.88;;
4971;SDS011;2501;51.214;6.768;2024-03-08T10:55:59;21.88;;;12.95;;
4971;SDS011;2501;51.214;6.768;2024-03-08T10:58:27;17.15;;;12.30;;
4971;SDS011;2501;51.214;6.768;2024-03-08T11:00:57;19.52;;;11.45;;
4971;SDS011;2501;51.214;6.768;2024-03-08T11:06:14;18.83;;;11.32;;
4971;SDS011;2501;51.214;6.768;2024-03-08T11:08:50;17.80;;;11.57;;
4971;SDS011;2501;51.214;6.768;2024-03-08T11:11:24;17.27;;;11.88;;
4971;SDS011;2501;51.214;6.768;2024-03-08T11:13:55;17.88;;;11.82;;
4971;SDS011;2501;51.214;6.768;2024-03-08T11:19:24;18.10;;;11.75;;
4971;SDS011;2501;51.214;6.768;2024-03-08T11:22:00;17.40;;;11.88;;
4971;SDS011;2501;51.214;6.768;2024-03-08T11:24:41;16.48;;;10.75;;
4971;SDS011;2501;51.214;6.768;2024-03-08T11:27:10;15.73;;;10.60;;
4971;SDS011;2501;51.214;6.768;2024-03-08T11:29:39;18.50;;;10.93;;
4971;SDS011;2501;51.214;6.768;2024-03-08T11:32:08;15.23;;;10.70;;
4971;SDS011;2501;51.214;6.768;2024-03-08T11:34:37;12.70;;;9.40;;
4971;SDS011;2501;51.214;6.768;2024-03-08T11:37:10;15.52;;;10.10;;
4971;SDS011;2501;51.214;6.768;2024-03-08T11:39:43;15.73;;;11.23;;
4971;SDS011;2501;51.214;6.768;2024-03-08T11:42:15;18.35;;;11.27;;
4971;SDS011;2501;51.214;6.768;2024-03-08T11:44:43;20.42;;;10.85;;
4971;SDS011;2501;51.214;6.768;2024-03-08T11:47:12;18.40;;;10.25;;
4971;SDS011;2501;51.214;6.768;2024-03-08T11:49:42;14.38;;;9.75;;
4971;SDS011;2501;51.214;6.768;2024-03-08T11:52:13;14.15;;;9.57;;
4971;SDS011;2501;51.214;6.768;2024-03-08T11:54:47;17.70;;;10.63;;
4971;SDS011;2501;51.214;6.768;2024-03-08T11:57:19;18.15;;;9.80;;
4971;SDS011;2501;51.214;6.768;2024-03-08T11:59:50;15.68;;;10.40;;
4971;SDS011;2501;51.214;6.768;2024-03-08T12:02:19;15.68;;;10.52;;
4971;SDS011;2501;51.214;6.768;2024-03-08T12:04:50;15.32;;;11.38;;
4971;SDS011;2501;51.214;6.768;2024-03-08T12:07:24;15.10;;;10.27;;
4971;SDS011;2501;51.214;6.768;2024-03-08T12:12:47;16.73;;;11.10;;
4971;SDS011;2501;51.214;6.768;2024-03-08T12:15:16;19.05;;;10.40;;
4971;SDS011;2501;51.214;6.768;2024-03-08T12:17:47;16.48;;;10.55;;
4971;SDS011;2501;51.214;6.768;2024-03-08T12:20:18;17.13;;;10.00;;
4971;SDS011;2501;51.214;6.768;2024-03-08T12:22:50;13.68;;;10.15;;
4971;SDS011;2501;51.214;6.768;2024-03-08T12:25:25;16.65;;;10.95;;
4971;SDS011;2501;51.214;6.768;2024-03-08T12:27:56;16.42;;;10.18;;
4971;SDS011;2501;51.214;6.768;2024-03-08T12:30:35;16.03;;;11.13;;
4971;SDS011;2501;51.214;6.768;2024-03-08T12:33:16;14.52;;;9.57;;
4971;SDS011;2501;51.214;6.768;2024-03-08T12:35:50;15.63;;;10.77;;
4971;SDS011;2501;51.214;6.768;2024-03-08T12:38:20;12.52;;;9.23;;
4971;SDS011;2501;51.214;6.768;2024-03-08T12:41:00;18.08;;;10.70;;
4971;SDS011;2501;51.214;6.768;2024-03-08T12:43:29;15.02;;;10.75;;
4971;SDS011;2501;51.214;6.768;2024-03-08T12:45:59;14.15;;;10.50;;
4971;SDS011;2501;51.214;6.768;2024-03-08T12:48:33;15.05;;;10.70;;
4971;SDS011;2501;51.214;6.768;2024-03-08T12:51:05;15.45;;;9.32;;
4971;SDS011;2501;51.214;6.768;2024-03-08T12:53:34;15.50;;;9.20;;
4971;SDS011;2501;51.214;6.768;2024-03-08T12:56:06;16.38;;;9.52;;
4971;SDS011;2501;51.214;6.768;2024-03-08T12:58:36;17.40;;;10.00;;
4971;SDS011;2501;51.214;6.768;2024-03-08T13:01:05;15.60;;;10.32;;
4971;SDS011;2501;51.214;6.768;2024-03-08T13:03:34;15.00;;;10.60;;
4971;SDS011;2501;51.214;6.768;2024-03-08T13:06:03;14.15;;;10.02;;
4971;SDS011;2501;51.214;6.768;2024-03-08T13:08:33;15.57;;;9.15;;
4971;SDS011;2501;51.214;6.768;2024-03-08T13:11:06;16.50;;;10.30;;
4971;SDS011;2501;51.214;6.768;2024-03-08T13:13:37;14.60;;;9.70;;
4971;SDS011;2501;51.214;6.768;2024-03-08T13:16:05;15.13;;;10.27;;
4971;SDS011;2501;51.214;6.768;2024-03-08T13:18:36;15.00;;;10.18;;
4971;SDS011;2501;51.214;6.768;2024-03-08T13:21:07;12.05;;;9.20;;
4971;SDS011;2501;51.214;6.768;2024-03-08T13:23:36;16.20;;;11.05;;
4971;SDS011;2501;51.214;6.768;2024-03-08T13:26:13;15.23;;;10.40;;
4971;SDS011;2501;51.214;6.768;2024-03-08T13:28:42;15.15;;;10.73;;
4971;SDS011;2501;51.214;6.768;2024-03-08T13:31:11;17.38;;;10.48;;
4971;SDS011;2501;51.214;6.768;2024-03-08T13:33:40;13.10;;;9.10;;
4971;SDS011;2501;51.214;6.768;2024-03-08T13:36:10;13.83;;;9.90;;
4971;SDS011;2501;51.214;6.768;2024-03-08T13:38:42;14.37;;;10.33;;
4971;SDS011;2501;51.214;6.768;2024-03-08T13:41:34;16.33;;;10.15;;
4971;SDS011;2501;51.214;6.768;2024-03-08T13:44:15;13.75;;;9.98;;
4971;SDS011;2501;51.214;6.768;2024-03-08T13:46:43;13.02;;;9.45;;
4971;SDS011;2501;51.214;6.768;2024-03-08T13:49:16;17.92;;;10.52;;
4971;SDS011;2501;51.214;6.768;2024-03-08T13:51:44;15.80;;;9.88;;
4971;SDS011;2501;51.214;6.768;2024-03-08T13:54:14;18.30;;;10.37;;
4971;SDS011;2501;51.214;6.768;2024-03-08T13:56:45;13.83;;;9.43;;
4971;SDS011;2501;51.214;6.768;2024-03-08T13:59:14;16.27;;;9.93;;
4971;SDS011;2501;51.214;6.768;2024-03-08T14:01:43;16.25;;;9.80;;
4971;SDS011;2501;51.214;6.768;2024-03-08T14:04:14;18.65;;;9.68;;
4971;SDS011;2501;51.214;6.768;2024-03-08T14:06:43;16.87;;;10.40;;
4971;SDS011;2501;51.214;6.768;2024-03-08T14:09:12;13.60;;;9.70;;
4971;SDS011;2501;51.214;6.768;2024-03-08T14:11:45;12.38;;;9.07;;
4971;SDS011;2501;51.214;6.768;2024-03-08T14:14:13;20.50;;;9.18;;
4971;SDS011;2501;51.214;6.768;2024-03-08T14:16:42;17.85;;;10.38;;
4971;SDS011;2501;51.214;6.768;2024-03-08T14:19:11;14.07;;;9.85;;
4971;SDS011;2501;51.214;6.768;2024-03-08T14:21:40;16.55;;;9.43;;
4971;SDS011;2501;51.214;6.768;2024-03-08T14:24:08;15.73;;;10.10;;
4971;SDS011;2501;51.214;6.768;2024-03-08T14:26:37;13.18;;;10.30;;
4971;SDS011;2501;51.214;6.768;2024-03-08T14:29:09;18.30;;;10.50;;
4971;SDS011;2501;51.214;6.768;2024-03-08T14:31:38;13.00;;;9.43;;
4971;SDS011;2501;51.214;6.768;2024-03-08T14:34:08;15.52;;;10.35;;
4971;SDS011;2501;51.214;6.768;2024-03-08T14:36:39;16.00;;;10.07;;
4971;SDS011;2501;51.214;6.768;2024-03-08T14:39:08;14.10;;;9.70;;
4971;SDS011;2501;51.214;6.768;2024-03-08T14:41:36;14.38;;;10.10;;
4971;SDS011;2501;51.214;6.768;2024-03-08T14:44:06;17.50;;;10.17;;
4971;SDS011;2501;51.214;6.768;2024-03-08T14:46:37;14.18;;;10.20;;
4971;SDS011;2501;51.214;6.768;2024-03-08T14:49:05;16.50;;;9.63;;
4971;SDS011;2501;51.214;6.768;2024-03-08T14:51:34;16.52;;;10.98;;
4971;SDS011;2501;51.214;6.768;2024-03-08T14:54:02;16.13;;;10.60;;
4971;SDS011;2501;51.214;6.768;2024-03-08T14:56:31;18.58;;;10.57;;
4971;SDS011;2501;51.214;6.768;2024-03-08T14:59:00;16.67;;;11.38;;
4971;SDS011;2501;51.214;6.768;2024-03-08T15:01:30;19.05;;;11.85;;
4971;SDS011;2501;51.214;6.768;2024-03-08T15:04:03;15.50;;;10.90;;
4971;SDS011;2501;51.214;6.768;2024-03-08T15:06:35;21.17;;;11.53;;
4971;SDS011;2501;51.214;6.768;2024-03-08T15:09:02;18.95;;;11.25;;
4971;SDS011;2501;51.214;6.768;2024-03-08T15:11:37;23.48;;;13.48;;
4971;SDS011;2501;51.214;6.768;2024-03-08T15:14:06;19.67;;;12.50;;